createdAt,value
2023-03-26T00:02:40.423Z,0.43
2023-03-26T00:05:32.085Z,1.38
2023-03-26T00:08:20.674Z,1.02
2023-03-26T00:11:10.850Z,3.63
2023-03-26T00:13:59.765Z,2.08
2023-03-26T00:16:49.948Z,1.35
2023-03-26T00:19:38.932Z,0.75
2023-03-26T00:22:29.251Z,1.50
2023-03-26T00:25:18.063Z,0.57
2023-03-26T00:28:07.631Z,1.05
2023-03-26T00:31:00.104Z,3.08
2023-03-26T00:33:48.753Z,1.80
2023-03-26T00:36:37.321Z,1.27
2023-03-26T00:39:29.198Z,1.00
2023-03-26T00:42:17.858Z,3.42
2023-03-26T00:45:07.701Z,1.77
2023-03-26T00:47:56.408Z,1.98
2023-03-26T00:50:47.201Z,1.98
2023-03-26T00:53:38.207Z,1.33
2023-03-26T00:56:30.813Z,1.85
2023-03-26T00:59:22.435Z,1.52
2023-03-26T01:02:17.228Z,0.40
2023-03-26T01:05:43.081Z,0.75
2023-03-26T01:08:34.968Z,0.30
2023-03-26T01:11:25.446Z,1.65
2023-03-26T01:14:18.369Z,0.65
2023-03-26T01:17:09.162Z,0.75
2023-03-26T01:20:12.365Z,0.40
2023-03-26T01:23:05.134Z,1.38
2023-03-26T01:25:59.711Z,1.73
2023-03-26T01:28:48.626Z,1.00
2023-03-26T01:31:41.561Z,0.47
2023-03-26T01:34:35.231Z,0.90
2023-03-26T01:37:28.154Z,0.63
2023-03-26T01:40:19.807Z,0.55
2023-03-26T01:43:15.586Z,2.33
2023-03-26T01:46:08.724Z,1.30
2023-03-26T01:48:57.411Z,0.45
2023-03-26T01:51:46.098Z,1.17
2023-03-26T01:54:35.223Z,0.95
2023-03-26T01:57:32.868Z,0.30
2023-03-26T02:00:27.830Z,0.43
2023-03-26T02:03:24.719Z,0.20
2023-03-26T02:06:18.331Z,0.28
2023-03-26T02:09:09.074Z,0.70
2023-03-26T02:11:57.741Z,0.28
2023-03-26T02:14:47.712Z,3.83
2023-03-26T02:17:40.353Z,0.45
2023-03-26T02:20:30.252Z,2.28
2023-03-26T02:23:18.897Z,0.35
2023-03-26T02:26:08.662Z,0.70
2023-03-26T02:28:57.920Z,0.20
2023-03-26T02:31:47.330Z,0.80
2023-03-26T02:34:37.703Z,0.63
2023-03-26T02:37:26.552Z,0.30
2023-03-26T02:40:15.135Z,0.73
2023-03-26T02:43:03.817Z,0.13
2023-03-26T02:45:52.678Z,0.50
2023-03-26T02:48:42.563Z,0.85
2023-03-26T02:51:34.840Z,0.10
2023-03-26T02:54:23.602Z,0.17
2023-03-26T02:57:12.261Z,1.48
2023-03-26T03:00:02.511Z,0.63
2023-03-26T03:02:52.764Z,0.40
2023-03-26T03:05:43.304Z,1.90
2023-03-26T03:08:34.065Z,0.35
2023-03-26T03:11:24.627Z,1.05
2023-03-26T03:14:13.244Z,1.30
2023-03-26T03:17:02.041Z,0.88
2023-03-26T03:19:50.668Z,0.85
2023-03-26T03:22:39.427Z,1.20
2023-03-26T03:25:29.386Z,0.38
2023-03-26T03:28:18.330Z,0.17
2023-03-26T03:31:09.043Z,0.50
2023-03-26T03:33:57.738Z,2.38
2023-03-26T03:36:48.411Z,0.43
2023-03-26T03:39:37.060Z,0.10
2023-03-26T03:42:27.469Z,0.85
2023-03-26T03:45:16.446Z,2.00
2023-03-26T03:48:05.416Z,1.05
2023-03-26T03:50:54.064Z,0.77
2023-03-26T03:53:46.361Z,1.98
2023-03-26T03:56:36.107Z,0.88
2023-03-26T03:59:26.619Z,1.05
2023-03-26T04:02:21.193Z,1.42
2023-03-26T04:05:11.706Z,0.55
2023-03-26T04:08:00.668Z,1.58
2023-03-26T04:10:49.560Z,0.82
2023-03-26T04:13:38.554Z,0.88
2023-03-26T04:16:28.679Z,0.20
2023-03-26T04:19:17.611Z,1.05
2023-03-26T04:22:07.736Z,1.85
2023-03-26T04:24:56.274Z,0.30
2023-03-26T04:27:45.044Z,0.43
2023-03-26T04:30:36.582Z,1.48
2023-03-26T04:33:28.388Z,3.35
2023-03-26T04:36:17.762Z,1.10
2023-03-26T04:39:06.844Z,0.20
2023-03-26T04:41:55.396Z,2.20
2023-03-26T04:44:44.023Z,0.10
2023-03-26T04:47:36.810Z,0.40
2023-03-26T04:50:27.653Z,1.13
2023-03-26T04:53:19.549Z,1.55
2023-03-26T04:56:13.620Z,0.50
2023-03-26T04:59:03.376Z,0.38
2023-03-26T05:01:52.722Z,2.58
2023-03-26T05:04:43.982Z,0.28
2023-03-26T05:07:35.789Z,0.75
2023-03-26T05:10:24.568Z,0.10
2023-03-26T05:13:13.202Z,1.45
2023-03-26T05:16:02.009Z,1.55
2023-03-26T05:18:51.548Z,0.88
2023-03-26T05:21:40.106Z,0.20
2023-03-26T05:24:30.462Z,1.10
2023-03-26T05:27:20.398Z,1.38
2023-03-26T05:30:10.064Z,0.55
2023-03-26T05:32:58.949Z,3.97
2023-03-26T05:35:49.465Z,0.43
2023-03-26T05:38:38.156Z,0.32
2023-03-26T05:41:28.252Z,1.08
2023-03-26T05:44:16.930Z,1.35
2023-03-26T05:47:05.894Z,0.43
2023-03-26T05:49:54.525Z,1.60
2023-03-26T05:52:45.600Z,1.52
2023-03-26T05:55:34.865Z,0.20
2023-03-26T05:58:25.205Z,2.15
2023-03-26T06:01:16.850Z,0.30
2023-03-26T06:04:05.677Z,6.15
2023-03-26T06:06:54.396Z,1.40
2023-03-26T06:09:43.685Z,3.90
2023-03-26T06:12:32.447Z,1.70
2023-03-26T06:15:22.595Z,1.77
2023-03-26T06:18:11.332Z,0.65
2023-03-26T06:21:00.769Z,1.95
2023-03-26T06:23:51.599Z,1.65
2023-03-26T06:26:40.313Z,1.02
2023-03-26T06:29:29.142Z,5.00
2023-03-26T06:32:20.315Z,1.98
2023-03-26T06:35:11.420Z,2.30
2023-03-26T06:38:00.718Z,0.82
2023-03-26T06:40:49.321Z,0.88
2023-03-26T06:43:39.111Z,2.00
2023-03-26T06:46:27.840Z,5.07
2023-03-26T06:49:18.846Z,0.10
2023-03-26T06:52:07.577Z,0.82
2023-03-26T06:54:56.305Z,2.90
2023-03-26T06:57:45.909Z,0.70
2023-03-26T07:00:35.788Z,3.15
2023-03-26T07:03:24.949Z,8.15
2023-03-26T07:06:16.167Z,0.82
2023-03-26T07:09:05.045Z,2.47
2023-03-26T07:11:53.720Z,0.28
2023-03-26T07:14:42.438Z,0.55
2023-03-26T07:17:31.242Z,3.67
2023-03-26T07:20:20.067Z,0.60
2023-03-26T07:23:12.122Z,2.38
2023-03-26T07:26:01.000Z,0.80
2023-03-26T07:29:04.770Z,0.32
2023-03-26T07:31:57.944Z,0.40
2023-03-26T07:34:53.081Z,0.65
2023-03-26T07:37:48.966Z,0.17
2023-03-26T07:40:47.564Z,1.55
2023-03-26T07:43:46.844Z,0.00
2023-03-26T07:46:37.101Z,0.55
2023-03-26T07:49:27.397Z,0.30
2023-03-26T07:52:16.615Z,0.30
2023-03-26T07:55:06.088Z,1.45
2023-03-26T07:58:08.448Z,1.08
2023-03-26T08:00:59.695Z,1.73
2023-03-26T08:04:24.145Z,0.47
2023-03-26T08:07:13.255Z,1.40
2023-03-26T08:10:08.260Z,2.00
2023-03-26T08:13:02.842Z,0.57
2023-03-26T08:15:57.774Z,4.35
2023-03-26T08:18:54.324Z,0.47
2023-03-26T08:21:48.001Z,0.43
2023-03-26T08:24:41.390Z,0.45
2023-03-26T08:27:39.147Z,2.38
2023-03-26T08:30:33.747Z,0.15
2023-03-26T08:33:23.576Z,1.75
2023-03-26T08:36:12.399Z,1.10
2023-03-26T08:39:01.340Z,0.63
2023-03-26T08:42:21.068Z,1.15
2023-03-26T08:45:30.567Z,0.30
2023-03-26T08:48:50.952Z,0.15
2023-03-26T08:52:03.414Z,0.15
2023-03-26T08:55:12.512Z,0.10
2023-03-26T08:58:20.428Z,1.27
2023-03-26T09:01:33.783Z,0.95
2023-03-26T09:04:35.423Z,0.43
2023-03-26T09:07:59.027Z,0.10
2023-03-26T09:10:53.691Z,0.10
2023-03-26T09:14:09.218Z,0.22
2023-03-26T09:17:21.387Z,1.08
2023-03-26T09:20:35.657Z,0.40
2023-03-26T09:23:56.229Z,0.85
2023-03-26T09:26:50.668Z,0.82
2023-03-26T09:30:16.885Z,1.80
2023-03-26T09:33:24.564Z,1.17
2023-03-26T09:36:36.233Z,2.92
2023-03-26T09:39:37.861Z,0.75
2023-03-26T09:42:34.088Z,0.65
2023-03-26T09:45:42.681Z,0.32
2023-03-26T09:48:54.138Z,2.25
2023-03-26T09:52:28.434Z,1.45
2023-03-26T09:55:35.770Z,0.35
2023-03-26T09:58:46.853Z,1.55
2023-03-26T10:01:40.809Z,0.95
2023-03-26T10:04:49.009Z,1.75
2023-03-26T10:07:49.357Z,0.10
2023-03-26T10:10:43.340Z,0.20
2023-03-26T10:13:36.460Z,2.28
2023-03-26T10:16:29.967Z,1.10
2023-03-26T10:19:41.749Z,0.40
2023-03-26T10:22:43.907Z,0.17
2023-03-26T10:25:52.808Z,0.20
2023-03-26T10:29:04.583Z,0.10
2023-03-26T10:31:55.745Z,0.10
2023-03-26T10:34:54.593Z,0.75
2023-03-26T10:37:56.034Z,0.82
2023-03-26T10:40:53.423Z,1.85
2023-03-26T10:44:32.291Z,0.98
2023-03-26T10:47:50.476Z,0.43
2023-03-26T10:50:56.313Z,0.65
2023-03-26T10:53:51.741Z,1.20
2023-03-26T10:56:42.571Z,0.20
2023-03-26T10:59:31.243Z,0.10
2023-03-26T11:02:29.142Z,0.47
2023-03-26T11:05:29.912Z,0.13
2023-03-26T11:08:31.563Z,0.95
2023-03-26T11:11:29.266Z,0.10
2023-03-26T11:14:33.712Z,0.65
2023-03-26T11:17:40.678Z,0.10
2023-03-26T11:20:38.076Z,0.57
2023-03-26T11:23:36.854Z,0.93
2023-03-26T11:26:31.714Z,0.10
2023-03-26T11:29:39.413Z,0.20
2023-03-26T11:32:33.064Z,4.82
2023-03-26T11:35:40.923Z,6.47
2023-03-26T11:38:37.899Z,38.10
2023-03-26T11:44:42.761Z,37.17
2023-03-26T11:47:37.687Z,26.63
2023-03-26T11:50:29.095Z,65.15
2023-03-26T11:53:20.534Z,25.90
2023-03-26T11:56:16.032Z,109.70
2023-03-26T11:59:11.511Z,25.85
2023-03-26T12:02:03.450Z,26.35
2023-03-26T12:04:55.822Z,20.30
2023-03-26T12:07:48.735Z,16.52
2023-03-26T12:10:39.181Z,13.43
2023-03-26T12:13:31.236Z,17.67
2023-03-26T12:16:23.458Z,6.03
2023-03-26T12:19:20.860Z,9.82
2023-03-26T12:22:30.617Z,1.50
2023-03-26T12:25:21.296Z,4.20
2023-03-26T12:28:19.401Z,3.08
2023-03-26T12:31:10.472Z,5.20
2023-03-26T12:34:11.694Z,11.10
2023-03-26T12:37:01.101Z,6.07
2023-03-26T12:40:07.500Z,7.43
2023-03-26T12:44:53.671Z,2.95
2023-03-26T12:47:57.291Z,5.20
2023-03-26T12:49:34.850Z,7.22
2023-03-26T12:52:43.341Z,3.53
2023-03-26T12:55:45.848Z,5.10
2023-03-26T12:58:54.982Z,9.15
2023-03-26T13:01:52.738Z,7.00
2023-03-26T13:05:06.062Z,1.88
2023-03-26T13:08:05.809Z,3.95
2023-03-26T13:10:57.736Z,5.78
2023-03-26T13:14:03.653Z,7.50
2023-03-26T13:16:58.519Z,2.13
2023-03-26T13:19:58.012Z,5.45
2023-03-26T13:22:55.351Z,19.77
2023-03-26T13:25:50.172Z,83.25
2023-03-26T13:28:52.025Z,353.15
2023-03-26T13:31:49.944Z,367.75
2023-03-26T13:34:46.350Z,375.42
2023-03-26T13:37:53.521Z,685.80
2023-03-26T13:40:51.973Z,617.25
2023-03-26T13:43:53.239Z,555.20
2023-03-26T13:46:44.401Z,588.95
2023-03-26T13:49:37.426Z,549.67
2023-03-26T13:52:29.379Z,554.40
2023-03-26T13:55:25.599Z,549.00
2023-03-26T13:58:19.588Z,532.10
2023-03-26T14:01:16.760Z,535.85
2023-03-26T14:04:27.300Z,464.10
2023-03-26T14:11:45.006Z,387.25
2023-03-26T14:14:40.045Z,398.80
2023-03-26T14:17:32.950Z,363.65
2023-03-26T14:20:56.393Z,340.40
2023-03-26T14:24:00.032Z,296.45
2023-03-26T14:27:00.233Z,261.15
2023-03-26T14:29:58.276Z,228.85
2023-03-26T14:32:56.003Z,207.80
2023-03-26T14:35:50.750Z,166.35
2023-03-26T14:39:11.041Z,161.05
2023-03-26T14:42:04.648Z,134.00
2023-03-26T14:45:21.513Z,113.65
2023-03-26T14:48:49.494Z,107.05
2023-03-26T14:51:52.211Z,90.90
2023-03-26T14:54:50.810Z,92.03
2023-03-26T14:58:04.803Z,79.07
2023-03-26T15:01:12.331Z,64.50
2023-03-26T15:04:30.610Z,63.70
2023-03-26T15:07:42.978Z,59.03
2023-03-26T15:11:16.257Z,49.10
2023-03-26T15:14:36.511Z,48.80
2023-03-26T15:17:44.992Z,40.55
2023-03-26T15:21:24.986Z,34.17
2023-03-26T15:24:46.501Z,26.75
2023-03-26T15:27:57.443Z,23.13
2023-03-26T15:31:11.476Z,25.85
2023-03-26T15:34:27.529Z,21.90
2023-03-26T15:37:47.922Z,27.27
2023-03-26T15:40:49.826Z,23.13
2023-03-26T15:44:24.922Z,17.75
2023-03-26T15:47:48.086Z,21.55
2023-03-26T15:50:47.553Z,18.42
2023-03-26T15:53:42.420Z,19.75
2023-03-26T15:56:44.754Z,18.60
2023-03-26T15:59:42.514Z,13.35
2023-03-26T16:02:40.519Z,14.57
2023-03-26T16:05:47.671Z,12.25
2023-03-26T16:08:41.161Z,12.00
2023-03-26T16:11:54.709Z,15.20
2023-03-26T16:14:46.943Z,14.63
2023-03-26T16:18:10.294Z,13.48
2023-03-26T16:21:47.913Z,13.25
2023-03-26T16:24:40.969Z,14.25
2023-03-26T16:27:41.793Z,10.60
2023-03-26T16:30:33.514Z,7.43
2023-03-26T16:33:29.493Z,9.77
2023-03-26T16:36:34.450Z,15.05
2023-03-26T16:39:27.535Z,16.42
2023-03-26T16:42:32.392Z,12.70
2023-03-26T16:45:24.435Z,10.38
2023-03-26T16:48:23.922Z,11.30
2023-03-26T16:51:17.275Z,10.95
2023-03-26T16:54:14.489Z,8.90
2023-03-26T16:57:13.774Z,11.38
2023-03-26T17:00:24.853Z,12.48
2023-03-26T17:03:29.166Z,6.82
2023-03-26T17:06:48.767Z,18.17
2023-03-26T17:09:44.892Z,12.40
2023-03-26T17:12:40.152Z,13.52
2023-03-26T17:15:37.985Z,7.40
2023-03-26T17:18:35.047Z,11.85
2023-03-26T17:21:28.937Z,9.25
2023-03-26T17:24:41.822Z,8.40
2023-03-26T17:27:36.262Z,6.50
2023-03-26T17:30:56.829Z,7.38
2023-03-26T17:33:46.179Z,6.43
2023-03-26T17:36:45.998Z,9.52
2023-03-26T17:40:36.888Z,8.35
2023-03-26T17:43:45.551Z,10.80
2023-03-26T17:46:36.321Z,7.47
2023-03-26T17:49:31.155Z,3.45
2023-03-26T17:52:22.511Z,5.68
2023-03-26T17:55:11.732Z,6.60
2023-03-26T17:58:01.546Z,9.80
2023-03-26T18:00:57.164Z,6.13
2023-03-26T18:03:49.505Z,7.47
2023-03-26T18:06:51.776Z,7.63
2023-03-26T18:09:53.092Z,5.82
2023-03-26T18:12:52.023Z,5.47
2023-03-26T18:15:53.554Z,4.60
2023-03-26T18:18:48.590Z,7.38
2023-03-26T18:21:39.202Z,4.75
2023-03-26T18:24:30.507Z,4.00
2023-03-26T18:27:22.322Z,4.10
2023-03-26T18:30:18.721Z,4.45
2023-03-26T18:33:15.393Z,2.45
2023-03-26T18:36:04.876Z,7.47
2023-03-26T18:38:58.537Z,5.43
2023-03-26T18:41:47.172Z,5.50
2023-03-26T18:44:37.707Z,3.28
2023-03-26T18:47:26.498Z,4.70
2023-03-26T18:50:20.717Z,3.10
2023-03-26T18:53:15.727Z,3.53
2023-03-26T18:56:20.166Z,6.97
2023-03-26T18:59:21.719Z,6.43
2023-03-26T19:02:14.277Z,3.80
2023-03-26T19:05:03.780Z,3.53
2023-03-26T19:07:56.760Z,2.85
2023-03-26T19:10:48.071Z,8.35
2023-03-26T19:13:38.424Z,2.95
2023-03-26T19:16:29.928Z,3.40
2023-03-26T19:19:20.632Z,4.65
2023-03-26T19:22:11.424Z,2.78
2023-03-26T19:25:04.586Z,2.60
2023-03-26T19:27:55.918Z,3.47
2023-03-26T19:30:44.939Z,3.70
2023-03-26T19:33:36.474Z,3.33
2023-03-26T19:36:29.564Z,4.78
2023-03-26T19:39:27.238Z,3.30
2023-03-26T19:42:27.623Z,2.47
2023-03-26T19:45:36.061Z,2.03
2023-03-26T19:48:25.752Z,4.35
2023-03-26T19:51:36.136Z,3.90
2023-03-26T19:54:25.201Z,3.45
2023-03-26T19:57:15.692Z,2.55
2023-03-26T20:00:13.692Z,2.83
2023-03-26T20:03:04.110Z,2.10
2023-03-26T20:05:53.081Z,5.05
2023-03-26T20:08:43.105Z,2.75
2023-03-26T20:11:34.313Z,4.28
2023-03-26T20:14:25.967Z,2.30
2023-03-26T20:17:17.933Z,2.72
2023-03-26T20:20:12.135Z,5.80
2023-03-26T20:23:01.541Z,2.00
2023-03-26T20:25:53.865Z,4.55
2023-03-26T20:28:48.437Z,3.22
2023-03-26T20:31:38.319Z,2.17
2023-03-26T20:34:28.727Z,1.05
2023-03-26T20:37:18.005Z,1.73
2023-03-26T20:40:09.276Z,1.75
2023-03-26T20:42:57.933Z,2.78
2023-03-26T20:45:46.832Z,1.92
2023-03-26T20:48:35.606Z,0.90
2023-03-26T20:51:28.486Z,3.38
2023-03-26T20:54:20.207Z,0.60
2023-03-26T20:57:11.987Z,2.40
2023-03-26T21:00:01.403Z,3.55
2023-03-26T21:02:53.261Z,2.15
2023-03-26T21:05:42.919Z,2.03
2023-03-26T21:08:35.616Z,2.13
2023-03-26T21:11:41.658Z,2.33
2023-03-26T21:14:34.426Z,1.85
2023-03-26T21:17:24.582Z,3.40
2023-03-26T21:20:16.710Z,3.22
2023-03-26T21:23:09.931Z,1.67
2023-03-26T21:26:06.454Z,0.93
2023-03-26T21:28:55.350Z,2.63
2023-03-26T21:31:44.610Z,0.80
2023-03-26T21:34:34.223Z,10.60
2023-03-26T21:37:24.185Z,2.80
2023-03-26T21:40:17.944Z,2.47
2023-03-26T21:43:08.986Z,0.82
2023-03-26T21:45:58.436Z,0.88
2023-03-26T21:48:48.071Z,0.88
2023-03-26T21:51:37.921Z,0.52
2023-03-26T21:54:28.468Z,1.85
2023-03-26T21:57:42.494Z,1.55
2023-03-26T22:00:43.465Z,1.75
2023-03-26T22:03:36.474Z,0.68
2023-03-26T22:06:31.325Z,1.05
2023-03-26T22:09:26.577Z,1.65
2023-03-26T22:12:25.524Z,2.78
2023-03-26T22:15:14.773Z,0.70
2023-03-26T22:18:07.197Z,1.48
2023-03-26T22:20:56.090Z,0.60
2023-03-26T22:23:50.046Z,2.33
2023-03-26T22:26:38.965Z,1.10
2023-03-26T22:29:27.942Z,1.13
2023-03-26T22:32:16.697Z,0.88
2023-03-26T22:35:07.380Z,0.82
2023-03-26T22:38:00.865Z,0.70
2023-03-26T22:40:59.739Z,0.50
2023-03-26T22:43:48.377Z,0.85
2023-03-26T22:46:38.713Z,1.15
2023-03-26T22:49:30.102Z,1.35
2023-03-26T22:52:20.372Z,1.30
2023-03-26T22:55:10.999Z,0.30
2023-03-26T22:57:59.652Z,0.68
2023-03-26T23:00:51.698Z,3.65
2023-03-26T23:03:41.604Z,2.17
2023-03-26T23:06:31.552Z,0.38
2023-03-26T23:09:21.870Z,0.30
2023-03-26T23:12:10.703Z,1.30
2023-03-26T23:14:59.409Z,0.73
2023-03-26T23:17:54.177Z,0.63
2023-03-26T23:20:43.472Z,2.50
2023-03-26T23:23:33.755Z,0.98
2023-03-26T23:26:24.150Z,2.88
2023-03-26T23:29:13.840Z,2.25
2023-03-26T23:32:02.806Z,0.50
2023-03-26T23:34:52.084Z,0.63
2023-03-26T23:37:42.535Z,0.55
2023-03-26T23:40:32.300Z,1.88
2023-03-26T23:43:22.660Z,0.10
2023-03-26T23:46:17.728Z,0.45
2023-03-26T23:49:07.427Z,1.33
2023-03-26T23:51:56.065Z,3.92
2023-03-26T23:54:44.663Z,0.82
2023-03-26T23:57:35.399Z,0.60
